This is the latest recevied weather packets stored in our database for station/object N2RDT. If no packets are shown the sender has not sent any weather packets the latest 10 day(s).
| Time | Temp. | Humidity | Pressure | Rain* | Wind** | Luminosity | Snow |
|---|---|---|---|---|---|---|---|
| 1777983289 | 16.67° C | 69% | 1017.8 hPa | 0 mm | - | 239 W/m² | - |
| 1777982986 | 16.11° C | 69% | 1017.8 hPa | 0 mm | - | 193 W/m² | - |
| 1777982682 | 16.11° C | 69% | 1017.6 hPa | 0 mm | - | 162 W/m² | - |
| 1777982381 | 16.11° C | 70% | 1017.6 hPa | 0 mm | - | 188 W/m² | - |
| 1777982077 | 16.11° C | 70% | 1017.6 hPa | 0 mm | - | 180 W/m² | - |
| 1777981776 | 15.56° C | 70% | 1017.5 hPa | 0 mm | - | 163 W/m² | - |
| 1777981472 | 15° C | 73% | 1017.6 hPa | 0 mm | - | 100 W/m² | - |
| 1777981168 | 15° C | 73% | 1017.5 hPa | 0 mm | - | 100 W/m² | - |
| 1777980865 | 15° C | 73% | 1017.6 hPa | 0 mm | - | 100 W/m² | - |
| 1777980561 | 15° C | 73% | 1017.5 hPa | 0 mm | - | 100 W/m² | - |
| 1777980259 | 13.89° C | 75% | 1017.3 hPa | 0 mm | - | 74 W/m² | - |
| 1777979955 | 13.89° C | 75% | 1017.3 hPa | 0 mm | - | 74 W/m² | - |
| 1777979655 | 13.89° C | 75% | 1017.1 hPa | 0 mm | - | 62 W/m² | - |
| 1777979351 | 13.89° C | 76% | 1017.1 hPa | 0 mm | - | 60 W/m² | - |
| 1777979048 | 13.33° C | 76% | 1017 hPa | 0 mm | - | 54 W/m² | - |
| 1777978745 | 13.33° C | 76% | 1017 hPa | 0 mm | - | 48 W/m² | - |
| 1777978441 | 13.33° C | 77% | 1016.9 hPa | 0 mm | - | 40 W/m² | - |
| 1777978138 | 12.78° C | 77% | 1017 hPa | 0 mm | - | 32 W/m² | - |
| 1777977835 | 12.78° C | 77% | 1016.9 hPa | 0 mm | - | 19 W/m² | - |
| 1777977531 | 12.78° C | 77% | 1016.7 hPa | 0 mm | - | 19 W/m² | - |
| 1777977229 | 12.78° C | 77% | 1016.9 hPa | 0 mm | - | 15 W/m² | - |
| 1777976926 | 12.78° C | 77% | 1016.7 hPa | 0 mm | - | 10 W/m² | - |
| 1777976623 | 12.78° C | 76% | 1016.6 hPa | 0 mm | - | 6 W/m² | - |
| 1777976319 | 12.78° C | 76% | 1016.5 hPa | 0 mm | - | 4 W/m² | - |
| 1777976014 | 13.33° C | 76% | 1016.6 hPa | 0 mm | - | 2 W/m² | - |
* Rain latest hour (hover to see other rain measurements)
** Current wind speed in m/s (hover to see current wind gust speed)